sensor_id;sensor_type;location;lat;lon;timestamp;P1;durP1;ratioP1;P2;durP2;ratioP2
72273;SDS011;60208;48.692;8.948;2022-10-04T00:02:28;9.75;;;7.20;;
72273;SDS011;60208;48.692;8.948;2022-10-04T00:07:33;10.73;;;7.40;;
72273;SDS011;60208;48.692;8.948;2022-10-04T00:10:13;12.50;;;7.90;;
72273;SDS011;60208;48.692;8.948;2022-10-04T00:12:46;10.27;;;7.35;;
72273;SDS011;60208;48.692;8.948;2022-10-04T00:15:17;10.60;;;7.07;;
72273;SDS011;60208;48.692;8.948;2022-10-04T00:17:50;10.10;;;6.47;;
72273;SDS011;60208;48.692;8.948;2022-10-04T00:25:52;8.10;;;6.38;;
72273;SDS011;60208;48.692;8.948;2022-10-04T00:31:06;11.23;;;6.60;;
72273;SDS011;60208;48.692;8.948;2022-10-04T00:33:39;8.73;;;6.60;;
72273;SDS011;60208;48.692;8.948;2022-10-04T00:46:57;12.35;;;6.95;;
72273;SDS011;60208;48.692;8.948;2022-10-04T00:49:26;9.80;;;6.70;;
72273;SDS011;60208;48.692;8.948;2022-10-04T00:52:02;9.73;;;6.78;;
72273;SDS011;60208;48.692;8.948;2022-10-04T00:54:32;11.15;;;6.38;;
72273;SDS011;60208;48.692;8.948;2022-10-04T00:57:01;8.63;;;6.63;;
72273;SDS011;60208;48.692;8.948;2022-10-04T01:05:04;9.15;;;6.43;;
72273;SDS011;60208;48.692;8.948;2022-10-04T01:07:36;10.32;;;6.25;;
72273;SDS011;60208;48.692;8.948;2022-10-04T01:10:13;9.77;;;6.57;;
72273;SDS011;60208;48.692;8.948;2022-10-04T01:12:50;11.65;;;6.45;;
72273;SDS011;60208;48.692;8.948;2022-10-04T01:15:27;9.90;;;6.47;;
72273;SDS011;60208;48.692;8.948;2022-10-04T01:20:59;8.90;;;5.93;;
72273;SDS011;60208;48.692;8.948;2022-10-04T01:25:55;9.55;;;6.00;;
72273;SDS011;60208;48.692;8.948;2022-10-04T01:28:20;7.82;;;5.53;;
72273;SDS011;60208;48.692;8.948;2022-10-04T01:30:46;7.82;;;6.00;;
72273;SDS011;60208;48.692;8.948;2022-10-04T01:33:11;8.93;;;6.00;;
72273;SDS011;60208;48.692;8.948;2022-10-04T01:35:37;9.45;;;6.07;;
72273;SDS011;60208;48.692;8.948;2022-10-04T01:38:03;7.78;;;5.72;;
72273;SDS011;60208;48.692;8.948;2022-10-04T01:40:35;7.90;;;5.25;;
72273;SDS011;60208;48.692;8.948;2022-10-04T01:43:28;9.15;;;6.18;;
72273;SDS011;60208;48.692;8.948;2022-10-04T01:46:02;9.57;;;5.43;;
72273;SDS011;60208;48.692;8.948;2022-10-04T01:48:35;7.40;;;5.70;;
72273;SDS011;60208;48.692;8.948;2022-10-04T01:51:07;8.02;;;6.00;;
72273;SDS011;60208;48.692;8.948;2022-10-04T01:53:43;9.02;;;5.50;;
72273;SDS011;60208;48.692;8.948;2022-10-04T01:56:19;8.98;;;5.72;;
72273;SDS011;60208;48.692;8.948;2022-10-04T01:58:52;8.38;;;5.60;;
72273;SDS011;60208;48.692;8.948;2022-10-04T02:03:56;9.38;;;5.53;;
72273;SDS011;60208;48.692;8.948;2022-10-04T02:06:25;9.00;;;5.50;;
72273;SDS011;60208;48.692;8.948;2022-10-04T02:08:51;7.85;;;5.85;;
72273;SDS011;60208;48.692;8.948;2022-10-04T02:11:21;9.52;;;6.43;;
72273;SDS011;60208;48.692;8.948;2022-10-04T02:13:49;9.20;;;6.43;;
72273;SDS011;60208;48.692;8.948;2022-10-04T02:16:16;9.07;;;6.45;;
72273;SDS011;60208;48.692;8.948;2022-10-04T02:18:42;9.68;;;6.18;;
72273;SDS011;60208;48.692;8.948;2022-10-04T02:21:08;8.82;;;5.65;;
72273;SDS011;60208;48.692;8.948;2022-10-04T02:23:34;9.02;;;5.65;;
72273;SDS011;60208;48.692;8.948;2022-10-04T02:26:04;9.20;;;5.78;;
72273;SDS011;60208;48.692;8.948;2022-10-04T02:28:31;8.23;;;5.97;;
72273;SDS011;60208;48.692;8.948;2022-10-04T02:30:56;8.57;;;5.82;;
72273;SDS011;60208;48.692;8.948;2022-10-04T02:33:42;7.22;;;5.60;;
72273;SDS011;60208;48.692;8.948;2022-10-04T02:36:09;9.48;;;5.65;;
72273;SDS011;60208;48.692;8.948;2022-10-04T02:38:36;8.48;;;5.72;;
72273;SDS011;60208;48.692;8.948;2022-10-04T02:43:52;5.93;;;4.95;;
72273;SDS011;60208;48.692;8.948;2022-10-04T02:46:31;9.52;;;6.13;;
72273;SDS011;60208;48.692;8.948;2022-10-04T02:49:09;8.05;;;5.50;;
72273;SDS011;60208;48.692;8.948;2022-10-04T02:51:49;8.85;;;6.30;;
72273;SDS011;60208;48.692;8.948;2022-10-04T02:54:25;7.63;;;6.03;;
72273;SDS011;60208;48.692;8.948;2022-10-04T02:56:54;9.27;;;5.78;;
72273;SDS011;60208;48.692;8.948;2022-10-04T02:59:20;7.30;;;5.60;;
72273;SDS011;60208;48.692;8.948;2022-10-04T03:01:56;10.57;;;6.10;;
72273;SDS011;60208;48.692;8.948;2022-10-04T03:04:26;10.18;;;6.28;;
72273;SDS011;60208;48.692;8.948;2022-10-04T03:06:53;9.07;;;5.68;;
72273;SDS011;60208;48.692;8.948;2022-10-04T03:09:21;8.48;;;5.60;;
72273;SDS011;60208;48.692;8.948;2022-10-04T03:11:47;7.30;;;5.75;;
72273;SDS011;60208;48.692;8.948;2022-10-04T03:14:15;9.00;;;5.65;;
72273;SDS011;60208;48.692;8.948;2022-10-04T03:16:43;8.07;;;5.78;;
72273;SDS011;60208;48.692;8.948;2022-10-04T03:19:09;9.35;;;6.35;;
72273;SDS011;60208;48.692;8.948;2022-10-04T03:21:36;8.73;;;6.25;;
72273;SDS011;60208;48.692;8.948;2022-10-04T03:24:03;11.02;;;6.53;;
72273;SDS011;60208;48.692;8.948;2022-10-04T03:26:31;8.15;;;6.35;;
72273;SDS011;60208;48.692;8.948;2022-10-04T03:29:04;8.67;;;5.83;;
72273;SDS011;60208;48.692;8.948;2022-10-04T03:31:34;11.98;;;6.35;;
72273;SDS011;60208;48.692;8.948;2022-10-04T03:34:04;10.80;;;6.00;;
72273;SDS011;60208;48.692;8.948;2022-10-04T03:36:29;12.02;;;10.48;;
72273;SDS011;60208;48.692;8.948;2022-10-04T03:38:55;10.32;;;6.13;;
72273;SDS011;60208;48.692;8.948;2022-10-04T03:41:22;7.18;;;5.03;;
72273;SDS011;60208;48.692;8.948;2022-10-04T03:43:49;7.10;;;5.03;;
72273;SDS011;60208;48.692;8.948;2022-10-04T03:46:15;7.68;;;5.95;;
72273;SDS011;60208;48.692;8.948;2022-10-04T03:48:51;7.90;;;5.53;;
72273;SDS011;60208;48.692;8.948;2022-10-04T03:51:18;6.55;;;5.38;;
72273;SDS011;60208;48.692;8.948;2022-10-04T03:53:46;8.13;;;5.10;;
72273;SDS011;60208;48.692;8.948;2022-10-04T03:56:33;7.22;;;5.22;;
72273;SDS011;60208;48.692;8.948;2022-10-04T03:59:01;8.20;;;5.20;;
72273;SDS011;60208;48.692;8.948;2022-10-04T04:01:36;7.05;;;5.38;;
72273;SDS011;60208;48.692;8.948;2022-10-04T04:09:16;8.25;;;5.78;;
72273;SDS011;60208;48.692;8.948;2022-10-04T04:11:46;9.13;;;5.75;;
72273;SDS011;60208;48.692;8.948;2022-10-04T04:14:14;7.18;;;5.30;;
72273;SDS011;60208;48.692;8.948;2022-10-04T04:16:45;9.35;;;5.60;;
72273;SDS011;60208;48.692;8.948;2022-10-04T04:19:12;7.53;;;5.13;;
72273;SDS011;60208;48.692;8.948;2022-10-04T04:21:40;9.63;;;5.57;;
72273;SDS011;60208;48.692;8.948;2022-10-04T04:24:12;8.38;;;5.75;;
72273;SDS011;60208;48.692;8.948;2022-10-04T04:26:41;8.90;;;5.72;;
72273;SDS011;60208;48.692;8.948;2022-10-04T04:29:19;9.75;;;5.63;;
72273;SDS011;60208;48.692;8.948;2022-10-04T04:31:51;11.40;;;6.80;;
72273;SDS011;60208;48.692;8.948;2022-10-04T04:34:43;9.35;;;5.95;;
72273;SDS011;60208;48.692;8.948;2022-10-04T04:37:14;8.95;;;6.20;;
72273;SDS011;60208;48.692;8.948;2022-10-04T04:39:39;8.80;;;5.70;;
72273;SDS011;60208;48.692;8.948;2022-10-04T04:42:15;7.38;;;5.55;;
72273;SDS011;60208;48.692;8.948;2022-10-04T04:44:50;10.18;;;6.22;;
72273;SDS011;60208;48.692;8.948;2022-10-04T04:47:36;9.85;;;6.60;;
72273;SDS011;60208;48.692;8.948;2022-10-04T04:50:12;11.70;;;6.60;;
72273;SDS011;60208;48.692;8.948;2022-10-04T04:55:03;12.55;;;6.90;;
72273;SDS011;60208;48.692;8.948;2022-10-04T04:57:30;15.05;;;6.95;;
72273;SDS011;60208;48.692;8.948;2022-10-04T04:59:57;13.07;;;6.45;;
72273;SDS011;60208;48.692;8.948;2022-10-04T05:02:34;11.05;;;6.38;;
72273;SDS011;60208;48.692;8.948;2022-10-04T05:05:16;13.23;;;6.97;;
72273;SDS011;60208;48.692;8.948;2022-10-04T05:07:59;12.43;;;7.10;;
72273;SDS011;60208;48.692;8.948;2022-10-04T05:10:50;11.20;;;6.47;;
72273;SDS011;60208;48.692;8.948;2022-10-04T05:13:19;12.10;;;7.13;;
72273;SDS011;60208;48.692;8.948;2022-10-04T05:15:46;11.68;;;7.10;;
72273;SDS011;60208;48.692;8.948;2022-10-04T05:18:32;11.70;;;6.72;;
72273;SDS011;60208;48.692;8.948;2022-10-04T05:21:02;13.95;;;6.70;;
72273;SDS011;60208;48.692;8.948;2022-10-04T05:23:29;11.23;;;6.90;;
72273;SDS011;60208;48.692;8.948;2022-10-04T05:25:54;12.10;;;7.78;;
72273;SDS011;60208;48.692;8.948;2022-10-04T05:28:20;14.55;;;7.88;;
72273;SDS011;60208;48.692;8.948;2022-10-04T05:33:36;16.73;;;9.18;;
72273;SDS011;60208;48.692;8.948;2022-10-04T05:36:25;19.38;;;9.73;;
72273;SDS011;60208;48.692;8.948;2022-10-04T05:47:16;18.73;;;9.30;;
72273;SDS011;60208;48.692;8.948;2022-10-04T05:49:46;17.52;;;9.77;;
72273;SDS011;60208;48.692;8.948;2022-10-04T05:52:15;17.88;;;9.52;;
72273;SDS011;60208;48.692;8.948;2022-10-04T05:55:22;16.67;;;9.65;;
72273;SDS011;60208;48.692;8.948;2022-10-04T06:05:53;16.42;;;10.70;;
72273;SDS011;60208;48.692;8.948;2022-10-04T06:11:08;13.45;;;7.63;;
72273;SDS011;60208;48.692;8.948;2022-10-04T06:16:40;12.13;;;8.05;;
72273;SDS011;60208;48.692;8.948;2022-10-04T06:19:20;15.40;;;8.20;;
72273;SDS011;60208;48.692;8.948;2022-10-04T06:22:10;12.75;;;7.88;;
72273;SDS011;60208;48.692;8.948;2022-10-04T06:24:39;10.40;;;7.32;;
72273;SDS011;60208;48.692;8.948;2022-10-04T06:29:37;10.07;;;7.53;;
72273;SDS011;60208;48.692;8.948;2022-10-04T06:50:31;11.10;;;7.03;;
72273;SDS011;60208;48.692;8.948;2022-10-04T07:01:33;11.30;;;8.25;;
72273;SDS011;60208;48.692;8.948;2022-10-04T07:04:18;12.73;;;8.27;;
72273;SDS011;60208;48.692;8.948;2022-10-04T07:07:05;13.13;;;8.00;;
72273;SDS011;60208;48.692;8.948;2022-10-04T07:09:49;11.38;;;7.60;;
72273;SDS011;60208;48.692;8.948;2022-10-04T07:12:16;11.48;;;7.72;;
72273;SDS011;60208;48.692;8.948;2022-10-04T07:14:43;10.65;;;7.68;;
72273;SDS011;60208;48.692;8.948;2022-10-04T07:17:20;14.02;;;7.65;;
72273;SDS011;60208;48.692;8.948;2022-10-04T07:20:00;11.43;;;7.85;;
72273;SDS011;60208;48.692;8.948;2022-10-04T07:22:36;13.65;;;8.40;;
72273;SDS011;60208;48.692;8.948;2022-10-04T07:30:52;11.35;;;7.70;;
72273;SDS011;60208;48.692;8.948;2022-10-04T07:33:22;10.18;;;7.90;;
72273;SDS011;60208;48.692;8.948;2022-10-04T07:38:35;9.73;;;7.45;;
72273;SDS011;60208;48.692;8.948;2022-10-04T07:43:49;10.85;;;7.30;;
72273;SDS011;60208;48.692;8.948;2022-10-04T07:49:13;10.70;;;6.90;;
72273;SDS011;60208;48.692;8.948;2022-10-04T08:05:21;13.93;;;7.10;;
72273;SDS011;60208;48.692;8.948;2022-10-04T08:16:03;9.80;;;6.38;;
72273;SDS011;60208;48.692;8.948;2022-10-04T08:18:46;11.45;;;6.95;;
72273;SDS011;60208;48.692;8.948;2022-10-04T08:21:21;10.60;;;6.38;;
72273;SDS011;60208;48.692;8.948;2022-10-04T08:26:44;11.23;;;6.32;;
72273;SDS011;60208;48.692;8.948;2022-10-04T08:29:28;9.48;;;6.38;;
72273;SDS011;60208;48.692;8.948;2022-10-04T09:05:03;10.35;;;7.35;;
72273;SDS011;60208;48.692;8.948;2022-10-04T09:21:24;8.85;;;5.38;;
72273;SDS011;60208;48.692;8.948;2022-10-04T09:26:46;9.00;;;5.10;;
72273;SDS011;60208;48.692;8.948;2022-10-04T09:32:16;7.13;;;4.70;;
72273;SDS011;60208;48.692;8.948;2022-10-04T10:02:39;6.40;;;4.25;;
72273;SDS011;60208;48.692;8.948;2022-10-04T10:05:27;6.47;;;3.95;;
72273;SDS011;60208;48.692;8.948;2022-10-04T10:10:55;6.82;;;4.20;;
72273;SDS011;60208;48.692;8.948;2022-10-04T10:16:55;5.70;;;3.50;;
72273;SDS011;60208;48.692;8.948;2022-10-04T10:31:10;4.20;;;3.60;;
72273;SDS011;60208;48.692;8.948;2022-10-04T10:41:50;4.38;;;2.25;;
72273;SDS011;60208;48.692;8.948;2022-10-04T10:47:03;2.80;;;2.10;;
72273;SDS011;60208;48.692;8.948;2022-10-04T10:49:45;3.88;;;2.15;;
72273;SDS011;60208;48.692;8.948;2022-10-04T11:33:37;2.22;;;1.27;;
72273;SDS011;60208;48.692;8.948;2022-10-04T11:36:35;1.88;;;1.33;;
72273;SDS011;60208;48.692;8.948;2022-10-04T11:42:25;1.52;;;1.30;;
72273;SDS011;60208;48.692;8.948;2022-10-04T11:48:00;2.22;;;1.35;;
72273;SDS011;60208;48.692;8.948;2022-10-04T11:57:03;2.25;;;1.33;;
72273;SDS011;60208;48.692;8.948;2022-10-04T12:11:12;3.33;;;1.40;;
72273;SDS011;60208;48.692;8.948;2022-10-04T12:14:09;2.60;;;1.05;;
72273;SDS011;60208;48.692;8.948;2022-10-04T12:25:25;2.13;;;1.10;;
72273;SDS011;60208;48.692;8.948;2022-10-04T12:31:10;5.50;;;1.60;;
72273;SDS011;60208;48.692;8.948;2022-10-04T12:34:41;1.00;;;0.90;;
72273;SDS011;60208;48.692;8.948;2022-10-04T12:47:27;1.63;;;1.20;;
72273;SDS011;60208;48.692;8.948;2022-10-04T12:52:32;2.88;;;1.27;;
72273;SDS011;60208;48.692;8.948;2022-10-04T12:55:40;0.90;;;0.90;;
72273;SDS011;60208;48.692;8.948;2022-10-04T12:58:20;2.13;;;1.10;;
72273;SDS011;60208;48.692;8.948;2022-10-04T13:00:58;2.42;;;1.10;;
72273;SDS011;60208;48.692;8.948;2022-10-04T13:11:55;2.40;;;0.95;;
72273;SDS011;60208;48.692;8.948;2022-10-04T13:22:49;2.47;;;0.80;;
72273;SDS011;60208;48.692;8.948;2022-10-04T13:31:26;2.30;;;1.00;;
72273;SDS011;60208;48.692;8.948;2022-10-04T13:47:43;1.17;;;0.80;;
72273;SDS011;60208;48.692;8.948;2022-10-04T13:50:21;3.22;;;0.80;;
72273;SDS011;60208;48.692;8.948;2022-10-04T14:01:53;3.63;;;0.80;;
72273;SDS011;60208;48.692;8.948;2022-10-04T14:22:07;1.13;;;0.70;;
72273;SDS011;60208;48.692;8.948;2022-10-04T14:35:00;1.23;;;0.68;;
72273;SDS011;60208;48.692;8.948;2022-10-04T14:46:20;2.47;;;0.80;;
72273;SDS011;60208;48.692;8.948;2022-10-04T14:54:54;1.65;;;0.88;;
72273;SDS011;60208;48.692;8.948;2022-10-04T15:00:10;2.75;;;0.90;;
72273;SDS011;60208;48.692;8.948;2022-10-04T15:05:24;1.10;;;0.80;;
72273;SDS011;60208;48.692;8.948;2022-10-04T15:07:58;1.42;;;0.90;;
72273;SDS011;60208;48.692;8.948;2022-10-04T15:10:35;1.98;;;0.90;;
72273;SDS011;60208;48.692;8.948;2022-10-04T15:15:40;1.33;;;0.80;;
72273;SDS011;60208;48.692;8.948;2022-10-04T15:18:26;1.42;;;0.80;;
72273;SDS011;60208;48.692;8.948;2022-10-04T15:20:57;1.13;;;1.00;;
72273;SDS011;60208;48.692;8.948;2022-10-04T15:23:28;1.08;;;0.90;;
72273;SDS011;60208;48.692;8.948;2022-10-04T15:25:58;1.38;;;0.85;;
72273;SDS011;60208;48.692;8.948;2022-10-04T15:38:56;1.35;;;0.88;;
72273;SDS011;60208;48.692;8.948;2022-10-04T15:49:34;3.47;;;1.30;;
72273;SDS011;60208;48.692;8.948;2022-10-04T16:00:21;3.17;;;1.03;;
72273;SDS011;60208;48.692;8.948;2022-10-04T16:06:10;1.77;;;1.20;;
72273;SDS011;60208;48.692;8.948;2022-10-04T16:11:30;1.17;;;1.10;;
72273;SDS011;60208;48.692;8.948;2022-10-04T16:22:07;4.40;;;1.70;;
72273;SDS011;60208;48.692;8.948;2022-10-04T16:24:53;2.88;;;1.35;;
72273;SDS011;60208;48.692;8.948;2022-10-04T16:30:01;2.35;;;1.45;;
72273;SDS011;60208;48.692;8.948;2022-10-04T16:32:35;2.08;;;1.38;;
72273;SDS011;60208;48.692;8.948;2022-10-04T16:38:53;6.85;;;1.60;;
72273;SDS011;60208;48.692;8.948;2022-10-04T16:44:11;3.55;;;1.35;;
72273;SDS011;60208;48.692;8.948;2022-10-04T16:46:47;3.00;;;1.73;;
72273;SDS011;60208;48.692;8.948;2022-10-04T16:49:19;5.07;;;3.22;;
72273;SDS011;60208;48.692;8.948;2022-10-04T16:57:24;4.18;;;2.38;;
72273;SDS011;60208;48.692;8.948;2022-10-04T17:05:15;3.85;;;2.53;;
72273;SDS011;60208;48.692;8.948;2022-10-04T17:10:57;3.58;;;3.28;;
72273;SDS011;60208;48.692;8.948;2022-10-04T17:13:53;5.78;;;2.97;;
72273;SDS011;60208;48.692;8.948;2022-10-04T17:19:31;3.35;;;2.53;;
72273;SDS011;60208;48.692;8.948;2022-10-04T17:30:25;3.45;;;2.50;;
72273;SDS011;60208;48.692;8.948;2022-10-04T17:38:12;3.65;;;2.60;;
72273;SDS011;60208;48.692;8.948;2022-10-04T17:46:03;3.65;;;2.25;;
72273;SDS011;60208;48.692;8.948;2022-10-04T17:48:31;4.68;;;2.50;;
72273;SDS011;60208;48.692;8.948;2022-10-04T17:52:09;4.05;;;2.72;;
72273;SDS011;60208;48.692;8.948;2022-10-04T17:54:43;4.28;;;2.53;;
72273;SDS011;60208;48.692;8.948;2022-10-04T17:57:38;6.90;;;2.80;;
72273;SDS011;60208;48.692;8.948;2022-10-04T18:00:13;8.27;;;6.00;;
72273;SDS011;60208;48.692;8.948;2022-10-04T18:02:48;9.45;;;6.75;;
72273;SDS011;60208;48.692;8.948;2022-10-04T18:11:12;7.07;;;3.20;;
72273;SDS011;60208;48.692;8.948;2022-10-04T18:16:30;4.28;;;2.90;;
72273;SDS011;60208;48.692;8.948;2022-10-04T18:22:16;5.90;;;3.45;;
72273;SDS011;60208;48.692;8.948;2022-10-04T18:24:43;6.18;;;3.72;;
72273;SDS011;60208;48.692;8.948;2022-10-04T18:27:17;8.75;;;3.72;;
72273;SDS011;60208;48.692;8.948;2022-10-04T18:32:42;7.05;;;3.65;;
72273;SDS011;60208;48.692;8.948;2022-10-04T18:35:17;6.35;;;3.80;;
72273;SDS011;60208;48.692;8.948;2022-10-04T18:37:49;6.35;;;3.95;;
72273;SDS011;60208;48.692;8.948;2022-10-04T18:40:18;4.53;;;3.70;;
72273;SDS011;60208;48.692;8.948;2022-10-04T18:42:50;5.35;;;4.07;;
72273;SDS011;60208;48.692;8.948;2022-10-04T18:45:23;7.00;;;3.85;;
72273;SDS011;60208;48.692;8.948;2022-10-04T18:47:50;5.90;;;4.18;;
72273;SDS011;60208;48.692;8.948;2022-10-04T19:04:42;7.57;;;5.22;;
72273;SDS011;60208;48.692;8.948;2022-10-04T19:07:34;7.45;;;5.15;;
72273;SDS011;60208;48.692;8.948;2022-10-04T19:12:50;6.82;;;4.90;;
72273;SDS011;60208;48.692;8.948;2022-10-04T19:17:51;6.33;;;5.47;;
72273;SDS011;60208;48.692;8.948;2022-10-04T19:20:52;10.30;;;4.40;;
72273;SDS011;60208;48.692;8.948;2022-10-04T19:29:03;7.90;;;4.90;;
72273;SDS011;60208;48.692;8.948;2022-10-04T19:35:17;7.35;;;5.38;;
72273;SDS011;60208;48.692;8.948;2022-10-04T19:37:27;9.60;;;6.55;;
72273;SDS011;60208;48.692;8.948;2022-10-04T19:43:02;7.40;;;4.82;;
72273;SDS011;60208;48.692;8.948;2022-10-04T19:45:41;9.75;;;5.00;;
72273;SDS011;60208;48.692;8.948;2022-10-04T19:50:50;6.75;;;5.20;;
72273;SDS011;60208;48.692;8.948;2022-10-04T19:53:20;7.30;;;5.15;;
72273;SDS011;60208;48.692;8.948;2022-10-04T20:03:40;7.30;;;5.75;;
72273;SDS011;60208;48.692;8.948;2022-10-04T20:06:06;10.57;;;5.38;;
72273;SDS011;60208;48.692;8.948;2022-10-04T20:17:02;11.77;;;6.45;;
72273;SDS011;60208;48.692;8.948;2022-10-04T20:21:52;10.65;;;6.82;;
72273;SDS011;60208;48.692;8.948;2022-10-04T20:27:05;10.27;;;6.88;;
72273;SDS011;60208;48.692;8.948;2022-10-04T20:34:54;9.60;;;6.57;;
72273;SDS011;60208;48.692;8.948;2022-10-04T20:37:20;9.05;;;6.38;;
72273;SDS011;60208;48.692;8.948;2022-10-04T20:42:31;11.05;;;6.63;;
72273;SDS011;60208;48.692;8.948;2022-10-04T20:44:57;8.48;;;6.00;;
72273;SDS011;60208;48.692;8.948;2022-10-04T20:52:42;21.77;;;13.30;;
72273;SDS011;60208;48.692;8.948;2022-10-04T20:57:41;10.82;;;6.75;;
72273;SDS011;60208;48.692;8.948;2022-10-04T21:00:15;9.52;;;6.80;;
72273;SDS011;60208;48.692;8.948;2022-10-04T21:02:42;11.57;;;6.38;;
72273;SDS011;60208;48.692;8.948;2022-10-04T21:05:16;9.02;;;6.25;;
72273;SDS011;60208;48.692;8.948;2022-10-04T21:07:47;8.00;;;6.53;;
72273;SDS011;60208;48.692;8.948;2022-10-04T21:10:16;10.35;;;6.32;;
72273;SDS011;60208;48.692;8.948;2022-10-04T21:12:43;8.95;;;6.35;;
72273;SDS011;60208;48.692;8.948;2022-10-04T21:17:40;8.57;;;6.18;;
72273;SDS011;60208;48.692;8.948;2022-10-04T21:20:11;8.95;;;6.03;;
72273;SDS011;60208;48.692;8.948;2022-10-04T21:22:38;9.10;;;6.95;;
72273;SDS011;60208;48.692;8.948;2022-10-04T21:25:05;13.48;;;6.43;;
72273;SDS011;60208;48.692;8.948;2022-10-04T21:28:12;10.95;;;6.22;;
72273;SDS011;60208;48.692;8.948;2022-10-04T21:30:46;8.38;;;6.00;;
72273;SDS011;60208;48.692;8.948;2022-10-04T21:33:11;10.50;;;7.13;;
72273;SDS011;60208;48.692;8.948;2022-10-04T21:35:36;10.90;;;6.32;;
72273;SDS011;60208;48.692;8.948;2022-10-04T21:38:02;12.63;;;7.47;;
72273;SDS011;60208;48.692;8.948;2022-10-04T21:40:28;9.93;;;7.85;;
72273;SDS011;60208;48.692;8.948;2022-10-04T21:42:53;11.05;;;7.70;;
72273;SDS011;60208;48.692;8.948;2022-10-04T21:45:18;9.85;;;7.53;;
72273;SDS011;60208;48.692;8.948;2022-10-04T21:47:43;11.52;;;7.88;;
72273;SDS011;60208;48.692;8.948;2022-10-04T21:50:09;8.45;;;6.63;;
72273;SDS011;60208;48.692;8.948;2022-10-04T21:52:34;11.20;;;7.28;;
72273;SDS011;60208;48.692;8.948;2022-10-04T21:54:59;10.35;;;6.80;;
72273;SDS011;60208;48.692;8.948;2022-10-04T21:57:25;10.82;;;6.97;;
72273;SDS011;60208;48.692;8.948;2022-10-04T21:59:50;13.15;;;8.10;;
72273;SDS011;60208;48.692;8.948;2022-10-04T22:02:16;11.10;;;7.85;;
72273;SDS011;60208;48.692;8.948;2022-10-04T22:04:41;12.25;;;8.05;;
72273;SDS011;60208;48.692;8.948;2022-10-04T22:07:07;11.20;;;8.13;;
72273;SDS011;60208;48.692;8.948;2022-10-04T22:09:34;11.35;;;7.95;;
72273;SDS011;60208;48.692;8.948;2022-10-04T22:12:00;11.63;;;8.20;;
72273;SDS011;60208;48.692;8.948;2022-10-04T22:14:25;10.35;;;8.00;;
72273;SDS011;60208;48.692;8.948;2022-10-04T22:16:50;11.88;;;8.00;;
72273;SDS011;60208;48.692;8.948;2022-10-04T22:19:16;9.52;;;7.50;;
72273;SDS011;60208;48.692;8.948;2022-10-04T22:21:41;9.80;;;7.20;;
72273;SDS011;60208;48.692;8.948;2022-10-04T22:24:13;10.48;;;7.95;;
72273;SDS011;60208;48.692;8.948;2022-10-04T22:26:41;15.27;;;8.57;;
72273;SDS011;60208;48.692;8.948;2022-10-04T22:29:10;12.07;;;8.25;;
72273;SDS011;60208;48.692;8.948;2022-10-04T22:31:37;14.10;;;8.48;;
72273;SDS011;60208;48.692;8.948;2022-10-04T22:34:02;9.35;;;7.65;;
72273;SDS011;60208;48.692;8.948;2022-10-04T22:39:03;10.87;;;7.43;;
72273;SDS011;60208;48.692;8.948;2022-10-04T22:41:32;11.38;;;7.05;;
72273;SDS011;60208;48.692;8.948;2022-10-04T22:44:01;12.63;;;7.68;;
72273;SDS011;60208;48.692;8.948;2022-10-04T22:46:55;12.30;;;6.63;;
72273;SDS011;60208;48.692;8.948;2022-10-04T22:49:26;9.50;;;6.70;;
72273;SDS011;60208;48.692;8.948;2022-10-04T22:51:53;10.00;;;7.38;;
72273;SDS011;60208;48.692;8.948;2022-10-04T22:54:20;8.43;;;6.15;;
72273;SDS011;60208;48.692;8.948;2022-10-04T22:56:47;9.52;;;6.68;;
72273;SDS011;60208;48.692;8.948;2022-10-04T22:59:15;9.60;;;6.32;;
72273;SDS011;60208;48.692;8.948;2022-10-04T23:01:41;9.57;;;6.70;;
72273;SDS011;60208;48.692;8.948;2022-10-04T23:04:17;11.20;;;6.55;;
72273;SDS011;60208;48.692;8.948;2022-10-04T23:06:46;9.00;;;6.75;;
72273;SDS011;60208;48.692;8.948;2022-10-04T23:09:12;10.27;;;6.97;;
72273;SDS011;60208;48.692;8.948;2022-10-04T23:11:37;7.93;;;6.45;;
72273;SDS011;60208;48.692;8.948;2022-10-04T23:14:02;7.10;;;6.28;;
72273;SDS011;60208;48.692;8.948;2022-10-04T23:16:28;7.38;;;6.05;;
72273;SDS011;60208;48.692;8.948;2022-10-04T23:19:07;7.78;;;6.28;;
72273;SDS011;60208;48.692;8.948;2022-10-04T23:21:36;8.38;;;6.20;;
72273;SDS011;60208;48.692;8.948;2022-10-04T23:24:35;10.05;;;6.60;;
72273;SDS011;60208;48.692;8.948;2022-10-04T23:26:54;10.95;;;6.18;;
72273;SDS011;60208;48.692;8.948;2022-10-04T23:31:47;8.15;;;6.07;;
72273;SDS011;60208;48.692;8.948;2022-10-04T23:34:22;10.20;;;6.65;;
72273;SDS011;60208;48.692;8.948;2022-10-04T23:36:50;8.85;;;6.28;;
72273;SDS011;60208;48.692;8.948;2022-10-04T23:39:21;9.05;;;6.30;;
72273;SDS011;60208;48.692;8.948;2022-10-04T23:41:48;9.38;;;6.50;;
72273;SDS011;60208;48.692;8.948;2022-10-04T23:44:14;13.77;;;7.18;;
72273;SDS011;60208;48.692;8.948;2022-10-04T23:46:40;11.25;;;6.95;;
72273;SDS011;60208;48.692;8.948;2022-10-04T23:49:07;10.15;;;7.22;;
72273;SDS011;60208;48.692;8.948;2022-10-04T23:51:37;13.27;;;7.32;;
72273;SDS011;60208;48.692;8.948;2022-10-04T23:54:02;11.18;;;8.80;;
72273;SDS011;60208;48.692;8.948;2022-10-04T23:56:29;15.55;;;9.60;;
72273;SDS011;60208;48.692;8.948;2022-10-04T23:58:55;18.65;;;12.60;;
